Time;durP1;ratioP1;P1;durP2;ratioP2;P2;SDS_P1;SDS_P2;PMS_P1;PMS_P2;Temp;Humidity;BMP_temperature;BMP_pressure;BME280_temperature;BME280_humidity;BME280_pressure;Samples;Min_cycle;Max_cycle;Signal;HPM_P1;HPM_P2
2022/09/06 00:01:15;;;;;;;5.60;3.75;;;20.70;90.90;;;;;;5112986;28;20079;-71
2022/09/06 00:03:42;;;;;;;5.70;3.83;;;20.60;91.00;;;;;;5112932;28;20047;-72
2022/09/06 00:06:12;;;;;;;7.63;3.83;;;20.60;91.10;;;;;;5094498;28;20044;-71
2022/09/06 00:08:40;;;;;;;5.60;3.75;;;20.60;91.20;;;;;;5113286;28;20052;-70
2022/09/06 00:11:07;;;;;;;5.35;3.42;;;20.50;91.30;;;;;;5094813;28;20085;-70
2022/09/06 00:13:34;;;;;;;6.18;3.83;;;20.40;91.40;;;;;;5094165;28;20047;-71
2022/09/06 00:16:06;;;;;;;5.05;3.22;;;20.40;91.60;;;;;;5094783;28;20044;-70
2022/09/06 00:18:33;;;;;;;5.78;3.70;;;20.40;91.70;;;;;;5094637;28;20108;-70
2022/09/06 00:21:00;;;;;;;6.88;3.92;;;20.40;91.90;;;;;;5112468;28;20495;-70
2022/09/06 00:23:28;;;;;;;7.05;4.00;;;20.30;92.00;;;;;;5095052;28;20547;-70
2022/09/06 00:26:02;;;;;;;6.53;4.13;;;20.20;92.00;;;;;;5112438;28;20085;-70
2022/09/06 00:28:29;;;;;;;5.18;3.90;;;20.20;92.20;;;;;;5094730;28;20051;-70
2022/09/06 00:30:57;;;;;;;7.07;4.20;;;20.20;92.30;;;;;;5094604;28;20505;-69
2022/09/06 00:33:23;;;;;;;8.38;3.53;;;20.20;92.30;;;;;;5094337;28;20083;-70
2022/09/06 00:35:50;;;;;;;4.65;3.72;;;20.10;92.50;;;;;;5094832;28;20040;-70
2022/09/06 00:38:17;;;;;;;7.05;3.67;;;20.10;92.50;;;;;;5112560;28;20108;-70
2022/09/06 00:40:46;;;;;;;5.63;4.32;;;20.10;92.60;;;;;;5094180;28;20551;-70
2022/09/06 00:43:12;;;;;;;7.30;4.30;;;20.00;92.70;;;;;;5112795;28;20516;-70
2022/09/06 00:45:40;;;;;;;7.78;4.30;;;20.00;92.80;;;;;;5094300;28;20404;-71
2022/09/06 00:48:07;;;;;;;6.72;3.95;;;20.00;92.90;;;;;;5111693;28;20048;-70
2022/09/06 00:50:34;;;;;;;6.65;3.88;;;20.00;93.30;;;;;;5113117;28;20059;-68
2022/09/06 00:53:01;;;;;;;6.32;3.42;;;20.00;93.20;;;;;;5098121;28;20491;-70
2022/09/06 00:55:28;;;;;;;5.97;3.67;;;19.90;93.60;;;;;;5115665;28;20100;-69
2022/09/06 00:57:56;;;;;;;5.10;4.47;;;19.90;93.40;;;;;;5097998;28;20552;-70
2022/09/06 01:00:23;;;;;;;6.22;4.50;;;19.80;93.40;;;;;;5097695;28;20047;-70
2022/09/06 01:02:50;;;;;;;8.55;4.03;;;19.80;93.60;;;;;;5115366;28;20494;-69
2022/09/06 01:05:18;;;;;;;6.95;3.88;;;19.80;93.60;;;;;;5115224;28;20112;-70
2022/09/06 01:08:02;;;;;;;8.15;4.13;;;19.80;93.70;;;;;;5097021;28;20051;-70
2022/09/06 01:10:55;;;;;;;5.80;3.95;;;19.70;93.90;;;;;;5097339;28;20368;-70
2022/09/06 01:13:34;;;;;;;7.00;4.10;;;19.70;94.00;;;;;;5097691;28;20058;-69
2022/09/06 01:16:11;;;;;;;9.82;4.18;;;19.80;94.60;;;;;;5096465;28;20044;-70
2022/09/06 01:18:51;;;;;;;6.10;3.80;;;19.70;94.50;;;;;;5097706;28;20079;-70
2022/09/06 01:21:34;;;;;;;4.57;3.90;;;19.70;94.60;;;;;;5115623;28;20063;-70
2022/09/06 01:24:24;;;;;;;5.53;4.20;;;19.70;94.70;;;;;;5097002;28;20116;-71
2022/09/06 01:27:20;;;;;;;5.10;4.03;;;19.60;94.80;;;;;;5115656;28;20051;-71
2022/09/06 01:29:51;;;;;;;9.07;4.20;;;19.60;95.00;;;;;;5115107;28;20584;-70
2022/09/06 01:32:26;;;;;;;5.68;4.15;;;19.60;95.10;;;;;;5097698;28;20059;-71
2022/09/06 01:34:58;;;;;;;11.70;4.38;;;19.60;95.40;;;;;;5114738;28;20120;-70
2022/09/06 01:37:26;;;;;;;9.13;4.30;;;19.60;95.70;;;;;;5096660;28;20388;-70
2022/09/06 01:39:52;;;;;;;7.40;4.18;;;19.50;95.80;;;;;;5115719;28;20055;-70
2022/09/06 01:42:23;;;;;;;8.40;4.07;;;19.50;95.90;;;;;;5115251;28;20048;-71
2022/09/06 01:44:55;;;;;;;8.88;3.90;;;19.50;95.90;;;;;;5114739;28;20051;-71
2022/09/06 01:47:34;;;;;;;5.35;4.32;;;19.50;96.00;;;;;;5115549;28;20405;-71
2022/09/06 01:50:22;;;;;;;9.45;4.10;;;19.50;96.10;;;;;;5115182;28;20056;-70
2022/09/06 01:53:00;;;;;;;6.15;4.43;;;19.50;96.20;;;;;;5115110;28;20055;-70
2022/09/06 01:55:32;;;;;;;7.55;4.28;;;19.50;96.60;;;;;;5114969;28;20056;-71
2022/09/06 01:58:18;;;;;;;8.23;4.60;;;19.50;96.50;;;;;;5114572;28;20401;-71
2022/09/06 02:00:55;;;;;;;6.80;4.13;;;19.40;96.60;;;;;;5115121;28;20048;-71
2022/09/06 02:03:28;;;;;;;7.72;4.13;;;19.40;96.50;;;;;;5096502;28;20063;-70
2022/09/06 02:06:00;;;;;;;6.03;4.07;;;19.40;96.50;;;;;;5096522;28;20535;-70
2022/09/06 02:08:31;;;;;;;7.10;4.20;;;19.40;96.40;;;;;;5115097;28;20044;-71
2022/09/06 02:11:01;;;;;;;10.02;4.93;;;19.40;96.50;;;;;;5114764;28;20487;-70
2022/09/06 02:13:31;;;;;;;6.20;4.75;;;19.40;96.60;;;;;;5114120;28;20116;-69
2022/09/06 02:16:02;;;;;;;7.13;4.20;;;19.40;96.50;;;;;;5114719;28;20063;-70
2022/09/06 02:18:34;;;;;;;6.35;4.45;;;19.40;96.40;;;;;;5096301;28;20048;-70
2022/09/06 02:21:03;;;;;;;6.38;4.25;;;19.40;96.50;;;;;;5096869;28;20047;-71
2022/09/06 02:23:35;;;;;;;8.65;4.47;;;19.40;96.40;;;;;;5096202;28;20445;-70
2022/09/06 02:26:07;;;;;;;6.28;4.18;;;19.40;96.40;;;;;;5095823;28;20101;-69
2022/09/06 02:28:34;;;;;;;7.20;4.50;;;19.40;96.50;;;;;;5114455;28;20503;-70
2022/09/06 02:31:07;;;;;;;5.95;4.68;;;19.40;96.40;;;;;;5114525;28;20055;-69
2022/09/06 02:33:34;;;;;;;8.18;4.45;;;19.50;96.70;;;;;;5113834;28;20491;-70
2022/09/06 02:36:05;;;;;;;6.63;4.30;;;19.50;96.50;;;;;;5096166;28;20047;-70
2022/09/06 02:38:34;;;;;;;7.47;4.32;;;19.50;96.50;;;;;;5095923;28;20054;-69
2022/09/06 02:41:01;;;;;;;6.78;4.50;;;19.40;96.50;;;;;;5113692;28;20055;-70
2022/09/06 02:43:28;;;;;;;7.50;4.65;;;19.40;96.40;;;;;;5095721;28;20051;-70
2022/09/06 02:45:55;;;;;;;8.48;4.95;;;19.40;96.50;;;;;;5095560;28;20047;-70
2022/09/06 02:48:23;;;;;;;7.03;4.05;;;19.40;96.60;;;;;;5113787;28;20097;-69
2022/09/06 02:50:50;;;;;;;8.30;5.15;;;19.40;96.70;;;;;;5114523;28;20409;-68
2022/09/06 02:53:17;;;;;;;7.03;4.28;;;19.40;96.80;;;;;;5095648;28;20055;-70
2022/09/06 02:55:47;;;;;;;11.35;5.03;;;19.40;96.80;;;;;;5095252;28;20047;-69
2022/09/06 02:58:15;;;;;;;8.05;5.05;;;19.30;96.80;;;;;;5113618;28;20394;-69
2022/09/06 03:00:42;;;;;;;8.88;4.60;;;19.30;96.80;;;;;;5095963;28;20471;-69
2022/09/06 03:03:09;;;;;;;6.72;4.68;;;19.30;96.90;;;;;;5095776;28;20521;-70
2022/09/06 03:05:38;;;;;;;7.30;4.35;;;19.30;97.00;;;;;;5113574;28;20059;-70
2022/09/06 03:08:05;;;;;;;7.55;4.60;;;19.30;97.20;;;;;;5113188;28;20721;-69
2022/09/06 03:10:32;;;;;;;5.50;4.40;;;19.30;97.40;;;;;;5113870;28;20087;-71
2022/09/06 03:12:59;;;;;;;9.00;4.85;;;19.30;97.40;;;;;;5113201;28;20052;-69
2022/09/06 03:15:26;;;;;;;7.13;5.05;;;19.20;97.50;;;;;;5112941;28;20093;-70
2022/09/06 03:17:57;;;;;;;7.35;4.93;;;19.20;97.50;;;;;;5113534;28;20048;-71
2022/09/06 03:20:25;;;;;;;6.72;4.90;;;19.20;97.60;;;;;;5095586;28;20144;-70
2022/09/06 03:22:53;;;;;;;7.05;5.18;;;19.20;97.70;;;;;;5094624;28;20124;-69
2022/09/06 03:25:20;;;;;;;10.15;4.72;;;19.20;97.80;;;;;;5095265;28;20051;-69
2022/09/06 03:27:47;;;;;;;6.65;4.80;;;19.20;97.80;;;;;;5112977;28;20499;-69
2022/09/06 03:30:14;;;;;;;7.15;4.82;;;19.20;97.90;;;;;;5113045;28;20051;-69
2022/09/06 03:32:41;;;;;;;7.47;4.68;;;19.20;98.00;;;;;;5113505;28;20096;-69
2022/09/06 03:35:08;;;;;;;8.02;5.38;;;19.20;98.00;;;;;;5113018;28;20044;-69
2022/09/06 03:37:35;;;;;;;12.05;5.20;;;19.20;98.10;;;;;;5094618;28;20474;-69
2022/09/06 03:40:05;;;;;;;7.43;5.18;;;19.10;98.20;;;;;;5113263;28;20491;-69
2022/09/06 03:42:31;;;;;;;5.82;5.22;;;19.10;98.00;;;;;;5095090;28;20059;-69
2022/09/06 03:44:58;;;;;;;9.35;5.30;;;19.20;98.40;;;;;;5094619;28;20453;-71
2022/09/06 03:47:25;;;;;;;7.72;5.18;;;19.10;98.10;;;;;;5112938;28;20047;-70
2022/09/06 03:49:52;;;;;;;8.23;5.43;;;19.10;98.20;;;;;;5094680;28;20043;-70
2022/09/06 03:52:19;;;;;;;9.63;5.18;;;19.10;98.30;;;;;;5102820;28;20071;-70
2022/09/06 03:54:46;;;;;;;9.90;4.57;;;19.60;99.20;;;;;;5111712;28;20051;-69
2022/09/06 03:57:14;;;;;;;5.80;4.53;;;19.90;99.40;;;;;;5091721;28;20043;-70
2022/09/06 03:59:41;;;;;;;9.95;5.10;;;20.20;98.90;;;;;;5113065;28;20099;-71
2022/09/06 04:02:08;;;;;;;5.85;4.43;;;20.30;98.30;;;;;;5094982;28;20099;-70
2022/09/06 04:04:35;;;;;;;7.15;5.13;;;20.20;97.90;;;;;;5099529;28;20043;-70
2022/09/06 04:07:02;;;;;;;6.82;5.15;;;20.30;97.60;;;;;;5118755;28;20043;-70
2022/09/06 04:09:28;;;;;;;6.55;5.10;;;20.40;97.40;;;;;;5110801;28;20096;-69
2022/09/06 04:11:55;;;;;;;9.90;5.13;;;20.30;97.30;;;;;;5090717;28;20043;-69
2022/09/06 04:14:24;;;;;;;6.93;5.18;;;20.50;97.50;;;;;;5110505;28;20237;-69
2022/09/06 04:16:51;;;;;;;8.57;4.60;;;20.40;97.20;;;;;;5092000;28;20056;-69
2022/09/06 04:19:18;;;;;;;5.90;5.00;;;20.30;97.20;;;;;;5106944;28;20077;-69
2022/09/06 04:21:45;;;;;;;6.22;4.95;;;20.20;97.10;;;;;;5123735;28;20051;-70
2022/09/06 04:24:12;;;;;;;8.38;5.00;;;20.20;97.30;;;;;;5111657;28;20096;-70
2022/09/06 04:26:39;;;;;;;7.75;4.55;;;20.30;97.40;;;;;;5112590;28;20056;-70
2022/09/06 04:29:06;;;;;;;9.00;4.72;;;20.40;97.30;;;;;;5099914;28;20410;-70
2022/09/06 04:31:34;;;;;;;6.22;4.40;;;20.40;97.10;;;;;;5114537;28;20105;-69
2022/09/06 04:34:01;;;;;;;6.30;5.07;;;20.40;97.20;;;;;;5096183;28;20405;-71
2022/09/06 04:36:28;;;;;;;13.25;5.82;;;20.30;97.40;;;;;;5103637;27;20051;-70
2022/09/06 04:38:55;;;;;;;7.75;5.35;;;20.10;97.40;;;;;;5119162;27;20044;-69
2022/09/06 04:41:22;;;;;;;7.35;4.78;;;20.10;97.80;;;;;;5100294;28;20051;-70
2022/09/06 04:43:49;;;;;;;8.68;5.90;;;20.00;98.10;;;;;;5101333;28;20056;-70
2022/09/06 04:46:20;;;;;;;6.50;5.10;;;20.00;98.10;;;;;;5109179;28;20043;-70
2022/09/06 04:48:49;;;;;;;9.02;5.70;;;19.90;98.40;;;;;;5116061;27;20088;-71
2022/09/06 04:51:16;;;;;;;8.80;5.57;;;19.90;98.50;;;;;;5116676;27;20043;-71
2022/09/06 04:53:43;;;;;;;9.18;6.45;;;19.70;98.60;;;;;;5097149;28;20448;-71
2022/09/06 04:56:15;;;;;;;10.55;6.18;;;19.70;98.90;;;;;;5096602;28;20047;-69
2022/09/06 04:58:43;;;;;;;8.88;5.88;;;19.50;99.10;;;;;;5124438;27;20507;-71
2022/09/06 05:01:10;;;;;;;9.25;6.30;;;19.50;99.40;;;;;;5111073;27;20100;-70
2022/09/06 05:03:37;;;;;;;8.30;6.47;;;19.40;99.70;;;;;;5113589;28;20067;-71
2022/09/06 05:06:07;;;;;;;12.45;6.78;;;19.30;99.90;;;;;;5113803;27;20044;-69
2022/09/06 05:08:35;;;;;;;7.13;6.43;;;19.30;99.90;;;;;;5094592;28;20054;-71
2022/09/06 05:11:02;;;;;;;7.90;6.63;;;19.10;99.90;;;;;;5113367;27;20043;-72
2022/09/06 05:13:29;;;;;;;9.60;7.15;;;19.10;99.90;;;;;;5096143;28;20060;-71
2022/09/06 05:15:59;;;;;;;11.35;6.55;;;19.00;99.90;;;;;;5094874;28;20051;-72
2022/09/06 05:18:26;;;;;;;10.65;6.95;;;19.00;99.90;;;;;;5095273;28;20097;-72
2022/09/06 05:20:53;;;;;;;7.97;6.95;;;18.90;99.90;;;;;;5095054;28;20043;-73
2022/09/06 05:23:21;;;;;;;8.40;6.47;;;18.90;99.90;;;;;;5112855;28;20440;-71
2022/09/06 05:25:49;;;;;;;10.27;7.05;;;18.90;99.90;;;;;;5113090;28;20113;-72
2022/09/06 05:28:16;;;;;;;11.25;7.22;;;18.90;99.90;;;;;;5097425;28;20482;-73
2022/09/06 05:30:43;;;;;;;7.65;6.28;;;18.80;99.90;;;;;;5095656;27;20063;-73
2022/09/06 05:33:12;;;;;;;10.55;6.85;;;18.90;99.90;;;;;;5113352;28;20666;-74
2022/09/06 05:35:39;;;;;;;7.97;7.18;;;18.80;99.90;;;;;;5095198;28;20116;-71
2022/09/06 05:38:06;;;;;;;10.85;7.70;;;18.90;99.90;;;;;;5112979;28;20047;-71
2022/09/06 05:40:34;;;;;;;10.27;7.63;;;18.90;99.90;;;;;;5095781;28;20116;-72
2022/09/06 05:43:01;;;;;;;9.80;7.35;;;18.90;99.90;;;;;;5112905;27;20043;-71
2022/09/06 05:45:28;;;;;;;9.20;8.20;;;18.90;99.90;;;;;;5113303;28;20445;-71
2022/09/06 05:47:54;;;;;;;10.77;8.27;;;18.90;99.90;;;;;;5112965;28;20501;-72
2022/09/06 05:50:21;;;;;;;9.07;8.05;;;18.90;99.90;;;;;;5097476;28;20583;-72
2022/09/06 05:52:48;;;;;;;11.85;7.68;;;18.90;99.90;;;;;;5112868;28;20044;-71
2022/09/06 05:55:15;;;;;;;12.25;8.25;;;18.90;99.90;;;;;;5112900;28;20070;-71
2022/09/06 05:57:43;;;;;;;8.80;7.20;;;19.00;99.90;;;;;;5113380;28;20051;-72
2022/09/06 06:00:12;;;;;;;10.68;7.53;;;19.00;99.90;;;;;;5099594;28;20052;-72
2022/09/06 06:02:39;;;;;;;12.65;8.90;;;19.00;99.90;;;;;;5111099;28;20548;-71
2022/09/06 06:05:07;;;;;;;14.18;8.45;;;19.10;99.90;;;;;;5096876;28;20130;-71
2022/09/06 06:07:34;;;;;;;9.50;8.02;;;19.10;99.90;;;;;;5113468;28;20487;-71
2022/09/06 06:10:01;;;;;;;12.85;8.27;;;19.10;99.90;;;;;;5094277;28;20108;-71
2022/09/06 06:12:28;;;;;;;15.05;8.05;;;19.10;99.90;;;;;;5112223;27;20052;-71
2022/09/06 06:14:56;;;;;;;11.73;8.48;;;19.10;99.90;;;;;;5112490;28;20050;-70
2022/09/06 06:17:23;;;;;;;14.75;8.27;;;19.20;99.90;;;;;;5112228;28;20047;-71
2022/09/06 06:19:50;;;;;;;13.00;8.32;;;19.20;99.90;;;;;;5111299;27;20043;-71
2022/09/06 06:22:17;;;;;;;14.05;8.50;;;19.20;99.90;;;;;;5120508;27;20048;-72
2022/09/06 06:24:43;;;;;;;16.30;8.98;;;19.30;99.90;;;;;;5094258;28;20096;-72
2022/09/06 06:27:10;;;;;;;11.52;8.82;;;19.30;99.90;;;;;;5112621;28;20048;-72
2022/09/06 06:29:37;;;;;;;12.05;9.50;;;19.30;99.90;;;;;;5113935;28;20047;-72
2022/09/06 06:32:06;;;;;;;12.20;9.98;;;19.30;99.90;;;;;;5113691;28;20062;-72
2022/09/06 06:34:33;;;;;;;13.45;9.80;;;19.30;99.90;;;;;;5113849;28;20107;-72
2022/09/06 06:36:59;;;;;;;20.10;9.40;;;19.30;99.90;;;;;;5095928;28;20043;-74
2022/09/06 06:39:26;;;;;;;14.45;8.75;;;19.30;99.90;;;;;;5095128;28;20541;-73
2022/09/06 06:41:54;;;;;;;9.77;8.77;;;19.20;99.90;;;;;;5114392;28;20051;-75
2022/09/06 06:44:21;;;;;;;12.00;9.55;;;19.30;99.90;;;;;;5095661;28;20452;-74
2022/09/06 06:46:48;;;;;;;11.90;8.93;;;19.30;99.90;;;;;;5095364;28;20100;-74
2022/09/06 06:49:16;;;;;;;18.95;9.05;;;19.30;99.90;;;;;;5113144;28;20048;-74
2022/09/06 06:51:43;;;;;;;12.35;9.38;;;19.40;99.90;;;;;;5113556;28;20517;-74
2022/09/06 06:54:10;;;;;;;9.95;8.27;;;19.30;99.90;;;;;;5095135;28;20043;-74
2022/09/06 06:56:39;;;;;;;11.18;8.65;;;19.40;99.90;;;;;;5095332;28;20063;-75
2022/09/06 06:59:07;;;;;;;10.25;9.00;;;19.40;99.90;;;;;;5113488;28;20122;-74
2022/09/06 07:01:35;;;;;;;13.75;8.77;;;19.50;99.90;;;;;;5112925;28;20096;-75
2022/09/06 07:04:02;;;;;;;12.38;9.05;;;19.50;99.90;;;;;;5113764;28;20051;-71
2022/09/06 07:06:31;;;;;;;12.05;9.02;;;19.60;99.90;;;;;;5095287;28;20552;-72
2022/09/06 07:08:59;;;;;;;15.02;9.18;;;19.70;99.90;;;;;;5112705;28;20622;-71
2022/09/06 07:11:26;;;;;;;13.65;9.93;;;19.70;99.90;;;;;;5103650;27;20095;-72
2022/09/06 07:13:53;;;;;;;21.52;11.63;;;19.80;99.90;;;;;;5108517;28;20055;-71
2022/09/06 07:16:21;;;;;;;15.57;9.65;;;19.80;99.90;;;;;;5094739;28;20047;-73
2022/09/06 07:18:51;;;;;;;11.82;9.02;;;19.80;99.90;;;;;;5116885;27;20054;-72
2022/09/06 07:21:20;;;;;;;10.68;9.40;;;19.90;99.90;;;;;;5111765;28;20051;-72
2022/09/06 07:23:48;;;;;;;12.77;9.85;;;20.10;99.90;;;;;;5113291;28;20495;-72
2022/09/06 07:26:16;;;;;;;12.63;10.73;;;20.30;99.90;;;;;;5111223;28;20138;-71
2022/09/06 07:28:43;;;;;;;14.32;10.25;;;20.70;99.90;;;;;;5112845;28;20436;-71
2022/09/06 07:31:10;;;;;;;13.77;9.10;;;21.10;99.90;;;;;;5095191;28;20491;-71
2022/09/06 07:33:37;;;;;;;11.25;9.70;;;21.50;99.90;;;;;;5113181;28;20056;-72
2022/09/06 07:36:06;;;;;;;13.05;9.60;;;21.70;99.90;;;;;;5094135;28;20134;-72
2022/09/06 07:38:34;;;;;;;10.73;9.63;;;21.80;99.90;;;;;;5094747;28;20046;-72
2022/09/06 07:41:03;;;;;;;10.57;9.32;;;22.00;99.90;;;;;;5094851;28;20059;-72
2022/09/06 07:43:30;;;;;;;13.10;9.32;;;22.20;99.90;;;;;;5099751;28;20600;-72
2022/09/06 07:45:59;;;;;;;11.82;9.55;;;22.60;99.30;;;;;;5114778;28;20096;-73
2022/09/06 07:48:29;;;;;;;10.43;8.50;;;23.00;98.30;;;;;;5133777;28;20047;-72
2022/09/06 07:50:56;;;;;;;13.57;9.55;;;23.10;97.90;;;;;;5133055;28;20130;-72
2022/09/06 07:53:22;;;;;;;11.68;9.35;;;22.90;97.80;;;;;;5126626;28;20051;-72
2022/09/06 07:55:49;;;;;;;12.82;9.30;;;23.60;97.30;;;;;;5114761;28;20047;-72
2022/09/06 07:58:17;;;;;;;11.23;8.75;;;24.80;95.20;;;;;;5114560;28;20052;-72
2022/09/06 08:00:44;;;;;;;9.60;8.63;;;26.20;92.60;;;;;;5111972;28;20463;-74
2022/09/06 08:03:11;;;;;;;10.05;8.77;;;27.30;90.30;;;;;;5098708;28;20059;-73
2022/09/06 08:05:38;;;;;;;10.00;8.10;;;28.20;86.90;;;;;;5116335;28;20109;-73
2022/09/06 08:08:05;;;;;;;10.65;8.27;;;28.90;84.70;;;;;;5102048;28;20056;-74
2022/09/06 08:10:32;;;;;;;10.20;7.97;;;29.60;82.60;;;;;;5098110;28;20060;-73
2022/09/06 08:12:59;;;;;;;14.75;9.13;;;30.10;80.60;;;;;;5099643;28;20051;-74
2022/09/06 08:15:28;;;;;;;10.10;6.88;;;30.10;79.60;;;;;;5097998;28;20048;-73
2022/09/06 08:17:55;;;;;;;9.80;7.30;;;30.60;78.40;;;;;;5116081;28;20052;-74
2022/09/06 08:20:22;;;;;;;11.93;7.80;;;30.50;77.80;;;;;;5116521;28;20105;-74
2022/09/06 08:22:49;;;;;;;8.82;7.63;;;29.80;77.50;;;;;;5115363;28;20196;-74
2022/09/06 08:25:16;;;;;;;8.23;6.88;;;29.60;77.70;;;;;;5116428;28;20115;-74
2022/09/06 08:27:43;;;;;;;9.30;7.78;;;30.20;78.00;;;;;;5116178;28;20571;-74
2022/09/06 08:30:11;;;;;;;9.40;7.30;;;30.90;76.40;;;;;;5098153;28;20043;-74
2022/09/06 08:32:41;;;;;;;8.57;7.43;;;31.30;75.30;;;;;;5097788;28;20105;-74
2022/09/06 08:35:09;;;;;;;8.95;7.00;;;31.50;74.60;;;;;;5098217;28;20051;-74
2022/09/06 08:37:36;;;;;;;8.95;7.57;;;31.80;74.20;;;;;;5098130;28;20059;-73
2022/09/06 08:40:03;;;;;;;8.68;7.68;;;32.00;73.20;;;;;;5097332;28;20059;-74
2022/09/06 08:42:31;;;;;;;9.40;7.40;;;31.90;73.10;;;;;;5116185;28;20050;-74
2022/09/06 08:44:59;;;;;;;8.93;8.02;;;31.80;72.20;;;;;;5097796;28;20138;-75
2022/09/06 08:47:26;;;;;;;10.60;6.72;;;32.10;72.00;;;;;;5096809;27;20586;-74
2022/09/06 08:50:00;;;;;;;9.25;6.65;;;32.20;71.70;;;;;;5113862;28;20047;-75
2022/09/06 08:52:46;;;;;;;9.73;6.80;;;32.50;71.50;;;;;;5116213;28;20047;-75
2022/09/06 08:55:26;;;;;;;9.20;6.90;;;32.80;69.40;;;;;;5098006;28;20589;-76
2022/09/06 08:58:12;;;;;;;10.57;6.88;;;32.90;70.60;;;;;;5097365;28;20055;-76
2022/09/06 09:00:40;;;;;;;8.00;6.93;;;32.90;68.90;;;;;;5097381;28;20526;-76
2022/09/06 09:03:11;;;;;;;7.60;6.85;;;33.10;69.80;;;;;;5116026;28;20048;-75
2022/09/06 09:05:41;;;;;;;7.57;6.78;;;33.40;69.50;;;;;;5097829;28;20109;-74
2022/09/06 09:08:12;;;;;;;;;;;33.30;69.10;;;;;;5115861;28;20096;-76
2022/09/06 09:10:42;;;;;;;9.00;6.80;;;32.40;68.90;;;;;;5115596;28;19924;-75
2022/09/06 09:13:22;;;;;;;8.38;6.50;;;32.40;70.30;;;;;;5115148;28;20087;-74
2022/09/06 09:15:48;;;;;;;8.07;6.50;;;32.80;69.40;;;;;;5096687;28;20560;-75
2022/09/06 09:18:21;;;;;;;8.73;5.90;;;32.90;69.10;;;;;;5116750;27;20535;-75
2022/09/06 09:20:49;;;;;;;9.98;6.38;;;33.20;68.70;;;;;;5095903;28;20503;-75
2022/09/06 09:23:16;;;;;;;14.02;6.25;;;33.80;68.10;;;;;;5113860;27;20047;-75
2022/09/06 09:25:45;;;;;;;10.40;6.82;;;34.40;67.40;;;;;;5113810;28;20101;-77
2022/09/06 09:28:17;;;;;;;9.45;6.80;;;34.30;66.80;;;;;;5113398;28;20060;-77
2022/09/06 09:30:50;;;;;;;9.82;6.25;;;34.80;65.80;;;;;;5133690;27;20055;-76
2022/09/06 09:33:26;;;;;;;9.25;6.50;;;34.50;65.40;;;;;;5130151;27;20092;-75
2022/09/06 09:35:55;;;;;;;5.95;5.35;;;34.80;66.00;;;;;;5134483;27;20737;-76
2022/09/06 09:38:26;;;;;;;7.78;6.40;;;35.00;66.30;;;;;;5133832;27;20051;-77
2022/09/06 09:40:54;;;;;;;25.27;9.85;;;34.90;66.20;;;;;;5114297;27;20051;-76
2022/09/06 09:43:23;;;;;;;10.00;5.95;;;33.80;67.30;;;;;;5129373;27;20099;-77
2022/09/06 09:46:14;;;;;;;9.20;5.68;;;32.90;68.00;;;;;;5095715;28;20461;-77
2022/09/06 09:48:43;;;;;;;8.45;5.57;;;31.80;68.70;;;;;;5112761;28;20054;-76
2022/09/06 09:51:20;;;;;;;7.18;5.63;;;31.20;70.60;;;;;;5132409;27;20051;-75
2022/09/06 09:53:53;;;;;;;6.88;5.75;;;31.10;70.80;;;;;;5110639;28;20052;-76
2022/09/06 09:56:33;;;;;;;10.43;6.25;;;31.90;70.40;;;;;;5112740;28;20048;-76
2022/09/06 09:59:00;;;;;;;7.63;5.60;;;32.70;68.60;;;;;;5099607;28;20060;-76
2022/09/06 10:01:30;;;;;;;8.95;5.40;;;33.50;67.50;;;;;;5097166;28;20055;-76
2022/09/06 10:04:06;;;;;;;9.30;5.85;;;34.20;66.90;;;;;;5105911;28;20052;-76
2022/09/06 10:06:34;;;;;;;7.82;5.65;;;34.90;66.20;;;;;;5109662;28;20396;-75
2022/09/06 10:09:31;;;;;;;7.82;5.93;;;35.10;65.30;;;;;;5095224;28;20048;-75
2022/09/06 10:12:00;;;;;;;7.90;5.68;;;34.90;63.70;;;;;;5110311;28;20067;-76
2022/09/06 10:14:32;;;;;;;9.73;6.20;;;35.20;64.80;;;;;;5112834;28;20086;-75
2022/09/06 10:17:00;;;;;;;9.13;6.13;;;35.70;64.30;;;;;;5094659;28;20092;-75
2022/09/06 10:19:39;;;;;;;10.18;6.18;;;35.40;64.30;;;;;;5114270;28;20044;-76
2022/09/06 10:22:21;;;;;;;7.30;5.90;;;35.60;64.10;;;;;;5095909;28;20093;-76
2022/09/06 10:25:08;;;;;;;17.70;6.28;;;35.50;63.70;;;;;;5096085;28;20047;-77
2022/09/06 10:27:38;;;;;;;6.72;6.05;;;35.40;64.20;;;;;;5096569;28;20510;-76
2022/09/06 10:30:08;;;;;;;9.88;5.13;;;36.00;64.60;;;;;;5095919;28;20567;-76
2022/09/06 10:32:41;;;;;;;11.70;6.25;;;35.70;64.30;;;;;;5095347;28;20131;-76
2022/09/06 10:35:23;;;;;;;8.25;5.50;;;35.90;63.50;;;;;;5112792;28;20445;-76
2022/09/06 10:38:13;;;;;;;9.50;6.43;;;36.20;63.60;;;;;;5114127;28;20052;-77
2022/09/06 10:40:48;;;;;;;10.40;5.78;;;35.90;62.70;;;;;;5095623;28;20048;-76
2022/09/06 10:43:18;;;;;;;11.18;6.78;;;35.80;63.60;;;;;;5113501;28;20043;-77
2022/09/06 10:45:51;;;;;;;8.35;6.20;;;35.20;64.00;;;;;;5095072;28;20055;-76
2022/09/06 10:48:24;;;;;;;11.38;6.72;;;35.30;63.60;;;;;;5096009;28;20055;-76
2022/09/06 10:50:54;;;;;;;10.98;6.65;;;35.30;63.90;;;;;;5113663;28;20049;-77
2022/09/06 10:53:34;;;;;;;11.30;6.45;;;35.30;63.40;;;;;;5111851;28;20075;-75
2022/09/06 10:56:08;;;;;;;7.57;6.07;;;35.30;64.30;;;;;;5095619;28;20062;-77
2022/09/06 10:58:45;;;;;;;8.95;6.07;;;36.00;64.10;;;;;;5113840;28;20051;-76
2022/09/06 11:01:22;;;;;;;9.77;6.47;;;35.90;63.10;;;;;;5124820;27;20051;-77
2022/09/06 11:03:52;;;;;;;7.43;5.72;;;36.00;63.00;;;;;;5133825;27;20047;-76
2022/09/06 11:06:22;;;;;;;8.57;5.93;;;36.10;63.90;;;;;;5115516;27;20482;-77
2022/09/06 11:08:56;;;;;;;11.63;6.10;;;36.60;63.00;;;;;;5134377;27;20047;-76
2022/09/06 11:11:34;;;;;;;7.93;6.13;;;36.70;62.10;;;;;;5115756;27;20083;-77
2022/09/06 11:14:07;;;;;;;9.57;5.30;;;36.90;62.30;;;;;;5115050;27;20132;-76
2022/09/06 11:16:40;;;;;;;6.60;5.60;;;37.00;61.90;;;;;;5115528;27;20529;-77
2022/09/06 11:19:13;;;;;;;6.72;5.65;;;36.70;62.20;;;;;;5097703;28;20047;-77
2022/09/06 11:22:09;;;;;;;8.35;5.50;;;36.70;62.10;;;;;;5112885;28;20097;-77
2022/09/06 11:24:53;;;;;;;8.80;5.50;;;37.10;61.40;;;;;;5066175;28;20571;-77
2022/09/06 11:27:28;;;;;;;7.40;5.75;;;37.00;61.00;;;;;;5094862;28;20047;-76
2022/09/06 11:29:56;;;;;;;10.52;5.70;;;36.60;61.70;;;;;;5113410;28;20065;-76
2022/09/06 11:32:34;;;;;;;8.03;5.10;;;36.80;61.80;;;;;;5113097;28;20096;-76
2022/09/06 11:35:03;;;;;;;9.77;4.40;;;36.80;61.80;;;;;;5094252;28;20826;-76
2022/09/06 11:37:34;;;;;;;9.13;4.95;;;37.10;62.30;;;;;;5095150;28;20051;-77
2022/09/06 11:40:17;;;;;;;8.02;5.35;;;36.90;61.00;;;;;;5113044;28;20570;-77
2022/09/06 11:43:09;;;;;;;9.93;4.18;;;36.40;61.20;;;;;;5094211;28;20108;-76
2022/09/06 11:45:43;;;;;;;8.57;5.80;;;35.70;62.20;;;;;;5084310;28;20059;-75
2022/09/06 11:48:34;;;;;;;7.32;4.18;;;35.10;62.90;;;;;;5085767;28;20055;-75
2022/09/06 11:51:05;;;;;;;10.00;5.32;;;34.60;63.70;;;;;;5133475;28;20086;-75
2022/09/06 11:53:36;;;;;;;10.35;5.05;;;33.60;64.70;;;;;;5130752;28;20055;-74
2022/09/06 11:56:27;;;;;;;6.35;5.25;;;33.00;65.50;;;;;;5112758;28;20104;-74
2022/09/06 11:58:59;;;;;;;7.80;5.03;;;33.50;66.30;;;;;;5111496;28;20498;-74
2022/09/06 12:01:40;;;;;;;5.00;3.90;;;34.20;65.00;;;;;;5101440;28;20106;-76
2022/09/06 12:04:09;;;;;;;6.85;4.72;;;35.20;64.00;;;;;;5093956;28;20134;-75
2022/09/06 12:06:38;;;;;;;7.70;4.80;;;35.80;63.10;;;;;;5112621;28;20109;-75
2022/09/06 12:09:28;;;;;;;6.72;4.38;;;36.40;62.30;;;;;;5112567;28;20047;-74
2022/09/06 12:11:57;;;;;;;6.72;3.30;;;36.50;61.60;;;;;;5112379;28;20052;-75
2022/09/06 12:14:31;;;;;;;7.13;3.83;;;37.00;61.50;;;;;;5094467;28;20055;-76
2022/09/06 12:17:45;;;;;;;7.25;3.97;;;37.00;60.80;;;;;;5112499;28;20052;-74
2022/09/06 12:20:32;;;;;;;6.30;3.92;;;36.80;61.10;;;;;;5094261;28;20096;-74
2022/09/06 12:22:58;;;;;;;6.38;3.75;;;36.80;60.50;;;;;;5112833;28;20051;-74
2022/09/06 12:25:57;;;;;;;5.90;3.97;;;37.20;60.50;;;;;;5093908;28;20051;-74
2022/09/06 12:28:47;;;;;;;6.18;3.50;;;37.00;60.70;;;;;;5094171;28;20051;-75
2022/09/06 12:31:24;;;;;;;7.20;3.80;;;36.80;60.30;;;;;;5094348;28;20085;-75
2022/09/06 12:33:53;;;;;;;5.32;3.42;;;37.00;60.80;;;;;;5111628;28;20048;-75
2022/09/06 12:36:28;;;;;;;5.07;3.05;;;37.00;60.70;;;;;;5112906;28;20058;-75
2022/09/06 12:38:57;;;;;;;6.47;3.85;;;36.70;60.40;;;;;;5111898;28;20494;-76
2022/09/06 12:41:26;;;;;;;6.43;3.55;;;37.30;60.60;;;;;;5112599;28;20050;-76
2022/09/06 12:43:57;;;;;;;5.90;3.03;;;37.90;60.10;;;;;;5111305;28;20449;-77
2022/09/06 12:46:24;;;;;;;6.93;3.65;;;37.90;59.60;;;;;;5112456;28;20048;-76
2022/09/06 12:49:07;;;;;;;5.18;3.20;;;38.00;59.80;;;;;;5116072;28;20052;-76
2022/09/06 12:51:35;;;;;;;3.97;3.30;;;37.60;59.10;;;;;;5116259;28;20100;-77
2022/09/06 12:54:04;;;;;;;6.57;3.33;;;37.70;59.80;;;;;;5117953;27;20043;-76
2022/09/06 12:56:33;;;;;;;4.43;3.40;;;38.00;59.50;;;;;;5136875;27;20379;-76
2022/09/06 12:59:18;;;;;;;5.78;2.88;;;38.60;59.20;;;;;;5136283;27;20054;-75
2022/09/06 13:01:52;;;;;;;6.70;3.38;;;38.70;58.80;;;;;;5101859;28;20036;-75